Flight Track Log - Related Links

Times and Time Zones

All times are in EDT time to prevent confusion due to time zone crossing. See the N498QS flight status page for this flight to view local times or setup timezone preferences in your user account.

Time Position Orientation Groundspeed Altitude Reporting Facility
EDT Latitude Longitude Course Direction KTS MPH feet Rate Location/Type
Mon 02:05:16 PM 27.9667 -82.5333 190° South 196 226 1,100  Level Tampa TRACON
Mon 02:06:34 PM 27.8833 -82.5500 190° South 226 260 5,100 2,787 Climbing Tampa TRACON
Mon 02:09:15 PM 27.6983 -82.5342 176° South 278 320 12,200 2,796 Climbing Miami Center
Mon 02:10:15 PM 27.6025 -82.5269 176° South 303 349 15,400 2,600 Climbing Miami Center
Mon 02:11:15 PM 27.5167 -82.5392 187° South 303 349 17,400 2,000 Climbing Miami Center
Mon 02:12:15 PM 27.4200 -82.5553 188° South 329 379 19,400 1,600 Climbing Miami Center
Mon 02:13:15 PM 27.3192 -82.5692 187° South 363 418 20,600 1,289 Climbing Miami Center
Mon 02:14:16 PM 27.2122 -82.5847 187° South 385 443 22,000 1,400 Climbing Miami Center
Mon 02:15:15 PM 27.1064 -82.6192 196° South 390 449 23,400 1,361 Climbing Miami Center
Mon 02:16:15 PM 27.0022 -82.6678 203° Southwest 402 463 24,700 1,300 Climbing Miami Center
Mon 02:17:15 PM 26.8944 -82.7019 196° South 412 474 26,000 1,150 Climbing Miami Center
Mon 02:18:15 PM 26.7772 -82.7144 185° South 417 480 27,000 1,000 Climbing Miami Center
Mon 02:19:15 PM 26.6575 -82.7317 187° South 429 494 28,000 1,050 Climbing Miami Center
Mon 02:20:15 PM 26.5358 -82.7442 185° South 434 499 29,100 1,200 Climbing Miami Center
Mon 02:22:15 PM 26.2947 -82.7739 186° South 439 505 31,600 1,333 Climbing Miami Center
Mon 02:23:15 PM 26.1753 -82.7889 186° South 444 511 33,100 1,500 Climbing Miami Center
Mon 02:24:15 PM 26.0594 -82.8083 189° South 439 505 34,600 1,550 Climbing Miami Center
Mon 02:25:15 PM 25.9528 -82.8656 206° Southwest 411 473 36,200 1,467 Climbing Miami Center
Mon 02:27:15 PM 25.7822 -83.0067 217° Southwest 416 479 39,000 1,433 Climbing Miami Center
Mon 02:28:15 PM 25.6911 -83.0828 217° Southwest 411 473 40,500 1,500 Climbing Miami Center
Mon 02:29:15 PM 25.6028 -83.1519 215° Southwest 403 464 42,000 1,250 Climbing Miami Center
Mon 02:30:15 PM 25.5161 -83.2231 217° Southwest 398 458 43,000 500 Climbing Miami Center
Mon 02:31:15 PM 25.4275 -83.2944 216° Southwest 398 458 43,000  Level Miami Center
Mon 02:33:15 PM 25.2458 -83.4408 216° Southwest 403 464 43,000  Level Miami Center
Mon 02:35:00 PM 25.0149 -83.6300 217° Southwest  Level FlightAware Approximate
Mon 02:35:15 PM 25.0658 -83.5869 217° Southwest 403 464 43,000  Level Miami Center
Mon 02:38:15 PM 24.7906 -83.8094 216° Southwest 414 476 43,400 350 Climbing Miami Center
Mon 02:39:15 PM 24.6867 -83.8903 215° Southwest 414 476 44,400 700 Climbing Miami Center
Mon 02:40:15 PM 24.5956 -83.9650 217° Southwest 414 476 44,800 300 Climbing Miami Center
Mon 02:41:15 PM 24.5003 -84.0372 215° Southwest 419 482 45,000 100 Climbing Miami Center
Mon 02:42:15 PM 24.4069 -84.1114 216° Southwest 419 482 45,000  Level Miami Center
Mon 02:43:15 PM 24.3178 -84.1836 216° Southwest 414 476 45,000  Level Miami Center
Mon 02:44:15 PM 24.2244 -84.2556 215° Southwest 409 471 45,000  Level Miami Center
Mon 02:45:15 PM 24.1292 -84.3272 214° Southwest 409 471 45,000  Level Miami Center
Mon 02:46:15 PM 24.0378 -84.4011 216° Southwest 409 471 45,000  Level Miami Center
Mon 02:47:15 PM 23.9369 -84.4611 209° Southwest 422 486 45,000  Level Miami Center
Mon 02:48:15 PM 23.8319 -84.5114 204° Southwest 422 486 45,000  Level Miami Center
Mon 02:49:15 PM 23.7375 -84.5644 207° Southwest 415 478 45,000  Level Miami Center
Mon 02:50:15 PM 23.6636 -84.6642 231° Southwest 393 452 45,000  Level Miami Center
Mon 02:52:00 PM 23.4869 -84.7160 195° South  Level FlightAware Approximate
Mon 02:59:00 PM 22.8612 -85.1055 223° Southwest  Level FlightAware Approximate
Mon 03:00:00 PM 22.7843 -85.1824 223° Southwest  Level FlightAware Approximate
Mon 03:01:00 PM 22.7075 -85.2593 223° Southwest  Level FlightAware Approximate
Mon 03:02:00 PM 22.6306 -85.3361 223° Southwest  Level FlightAware Approximate
Mon 03:03:00 PM 22.5538 -85.4129 223° Southwest  Level FlightAware Approximate
Mon 03:04:00 PM 22.4770 -85.4897 223° Southwest  Level FlightAware Approximate
Mon 03:05:00 PM 22.3939 -85.5582 216° Southwest  Level FlightAware Approximate
Mon 03:06:00 PM 22.3104 -85.6252 226° Southwest  Level FlightAware Approximate
Mon 03:07:00 PM 22.2372 -85.7059 226° Southwest  Level FlightAware Approximate
Mon 03:08:00 PM 22.1635 -85.7860 218° Southwest  Level FlightAware Approximate
Mon 03:09:00 PM 22.0813 -85.8557 218° Southwest  Level FlightAware Approximate
Mon 03:10:00 PM 21.9990 -85.9253 218° Southwest  Level FlightAware Approximate
Mon 03:11:00 PM 21.9295 -86.0020 220° Southwest  Level FlightAware Approximate
Mon 03:12:00 PM 21.8494 -86.0745 220° Southwest  Level FlightAware Approximate
Mon 03:13:00 PM 21.7694 -86.1470 220° Southwest  Level FlightAware Approximate
Mon 03:14:00 PM 21.6893 -86.2194 220° Southwest  Level FlightAware Approximate
Mon 03:15:00 PM 21.6092 -86.2917 220° Southwest  Level FlightAware Approximate
Mon 03:16:00 PM 21.5366 -86.3725 227° Southwest  Level FlightAware Approximate
Mon 03:17:00 PM 21.4628 -86.4518 220° Southwest  Level FlightAware Approximate
Mon 03:18:00 PM 21.3827 -86.5240 220° Southwest  Level FlightAware Approximate
Mon 03:19:00 PM 21.3024 -86.5959 219° Southwest  Level FlightAware Approximate
Mon 03:20:00 PM 21.2213 -86.6668 219° Southwest  Level FlightAware Approximate
Mon 03:21:00 PM 21.1362 -86.7314 212° Southwest  Level FlightAware Approximate
Mon 03:22:00 PM 21.0675 -86.8155 231° Southwest  Level FlightAware Approximate
Mon 03:23:00 PM 21.0167 -86.8667 270° West  Level FlightAware Approximate
Mon 03:24:00 PM 21.0365 -86.8771 270° West  Level Estimated
Mon 03:25:00 PM 21.0365 -86.8771 270° West  Level Estimated
Mon 03:26:00 PM 21.0365 -86.8771 270° West  Level Estimated
Mon 03:27:00 PM 21.0365 -86.8771 270° West  Level Estimated
Mon 03:28:00 PM 21.0365 -86.8771 270° West  Level Estimated
Mon 03:29:00 PM 21.0365 -86.8771 270° West  Level Estimated
Mon 03:30:00 PM 21.0365 -86.8771 270° West  Level Estimated
Mon 03:31:00 PM 21.0365 -86.8771 270° West  Level Estimated
Mon 03:32:00 PM 21.0365 -86.8771 270° West  Level Estimated
Mon 03:33:00 PM 21.0365 -86.8771 270° West  Level Estimated
Mon 03:34:00 PM 21.0365 -86.8771 270° West  Level Estimated
Mon 03:35:00 PM 21.0365 -86.8771 270° West  Level Estimated
Mon 03:36:00 PM 21.0365 -86.8771 270° West  Level Estimated
Mon 03:37:00 PM 21.0365 -86.8771 270° West  Level Estimated
Mon 03:38:00 PM 21.0365 -86.8771 270° West  Level Estimated
Mon 03:39:00 PM 21.0365 -86.8771 270° West  Level Estimated

Login

Don't have an account? Register now (free) for customized features, flight alerts, and more!